AirNav   Free Bose QuietComfort 20
 
 931 users online  

3FD8 West Boca Medical Center Heliport
Boca Raton, Florida, USA

GOING TO BOCA RATON?


FAA INFORMATION EFFECTIVE 05 DECEMBER 2019

Location

FAA Identifier: 3FD8
Lat/Long: 26-21-22.7700N 080-12-00.9100W
26-21.379500N 080-12.015167W
26.3563250,-80.2002528
(estimated)
Elevation: 20 ft. / 6 m (estimated)
Variation: 04W (1995)
From city: 5 miles W of BOCA RATON, FL
Time zone: UTC -5 (UTC -4 during Daylight Saving Time)
Zip code: 33428

Heliport Operations

Heliport use: Private use, MEDICAL USE.
Activation date: 09/1998
Control tower: no
ARTCC: MIAMI CENTER
FSS: MIAMI FLIGHT SERVICE STATION
Attendance: CONTINUOUS
Wind indicator: lighted
Segmented circle: no
Lights: SS-SR

Heliport Communications

WX AWOS-3 at BCT (5 nm E): 121.125 (561-391-2696)
WX ASOS at PMP (8 nm SE): PHONE 954-783-3720
WX ASOS at FXE (10 nm S): PHONE 954-772-2537
WX AWOS-3PT at LNA (15 nm NE): 119.925 (561-964-0308)
WX ASOS at FLL (17 nm S): PHONE 954-359-7857

Nearby radio navigation aids

VOR radial/distance  VOR name  Freq  Var
FLLr360/17.0FORT LAUDERDALE VOR/DME114.4006W
PBIr200/20.4PALM BEACH VORTAC115.7003W
DHPr018/34.3DOLPHIN VORTAC113.9004W
VKZr000/36.3VIRGINIA KEY VOR/DME117.1004W
PHKr134/36.7PAHOKEE VOR/DME115.4000E

 
NDB name  Hdg/Dist  Freq  Var  ID
UNITED173/33.940505WUTX ..- - -..-

Heliport Services

Runway Information

Helipad H1

Dimensions: 40 x 40 ft. / 12 x 12 m
Surface: concrete
Runway edge lights: PERI
AND FLOOD LGTS.
Latitude: 26-21.379500N
Longitude: 080-12.015167W
Elevation: 20.0 ft.
Traffic pattern: leftleft

Heliport Ownership and Management from official FAA records

Ownership: Privately-owned
Owner: TENET HEALTHCARE CORP.
21644 STATE ROAD 7 (HWY 441)
BOCA RATON, FL 33428
Phone (561) 488-8000
Manager: LINDA BALLOU
21644 STATE ROAD 7 (HWY 441)
BOCA RATON, FL 33428
Phone (561) 488-8206
OR DINO GAVAZZA.

Additional Remarks

A52-H1 100 FT ANT ON BUILDING 400 FT SE OF PAD.
FOR CD CTC MIAMI APCH AT 305-869-5432.

Instrument Procedures

There are no published instrument procedures at 3FD8.

Some nearby airports with instrument procedures:

KBCT - Boca Raton Airport (5 nm E)
KPMP - Pompano Beach Airpark (8 nm SE)
KFXE - Fort Lauderdale Executive Airport (10 nm S)
KLNA - Palm Beach County Park Airport (15 nm NE)
KFLL - Fort Lauderdale/Hollywood International Airport (17 nm S)
 
Loc | Ops | Rwys | IFR | FBO | Links
Com | Nav | Svcs | Stats | Notes


 
Area around 3FD8 (West Boca Medical Center Heliport)
 
Road maps at: MapQuest Bing Google
 
Aerial photo
No photo
 
Sectional chart

 
Airport distance calculator
Flying to West Boca Medical Center Heliport? Find the distance to fly.

From to 3FD8

Sunrise and sunset
Times for 12-Dec-2019
 Local
(UTC-5)
 Zulu
(UTC)
Morning civil twilight06:3511:35
Sunrise07:0012:00
Sunset17:2922:29
Evening civil twilight17:5422:54

Current date and time
Zulu (UTC)  13-Dec-2019 00:15:15
Local (UTC-5)  12-Dec-2019 19:15:15
 
METAR
KBCT 
6nm E 
122353Z 10006KT 10SM SCT030 24/20 A3012
KPMP 
8nm SE 
122353Z 10010KT 7SM FEW025 SCT032 26/19 A3011 RMK AO2 SLP197 60002 T02560194 10261 20233 53002
KFXE 
9nm S 
122353Z 09004KT 10SM SCT027 23/21 A3011 RMK AO2 SLP198 60011 T02330206 10261 20228 53001
KLNA 
15nm NE 
122355Z AUTO 01004KT 10SM BKN025 BKN036 OVC055 24/22 A3013 RMK AO2 6//// T02430215 10262 20227 PNO
KFLL 
18nm S 
130004Z 15004KT 4SM R10L/4000VP6000FT +RA BR FEW022 BKN026 BKN037 22/19 A3011 RMK AO2 P0015 T02170194 $
TAF
KFXE 
9nm S 
122201Z 1222/1318 11006KT P6SM VCSH SCT020 SCT027 SCT045 FM130000 10008KT P6SM SCT030 BKN060 BKN100 PROB30 1309/1315 5SM SHRA BKN025 FM131500 13009KT P6SM SCT025 BKN050 BKN100 PROB30 1315/1318 5SM SHRA BKN025
KFLL 
18nm S 
122201Z 1222/1324 11012KT P6SM VCSH SCT025 SCT100 BKN170 FM130000 10008KT P6SM SCT030 BKN060 BKN100 PROB30 1309/1315 5SM SHRA BKN025 FM131500 13009KT P6SM SCT025 BKN050 BKN100 PROB30 1315/1318 5SM SHRA BKN025 FM131800 16009KT P6SM SCT025 BKN050 BKN150
NOTAMs
Click for the latest NOTAMs
NOTAMs are issued by the DoD/FAA and will open in a separate window not controlled by AirNav.

 

 
 

Would you like to see your business listed on this page?

 If your business provides an interesting product or service to pilots, flight crews, aircraft, or users of the West Boca Medical Center Heliport, you should consider listing it here.  To start the listing process, click on the button below
 
Add a business
 

Other Pages about West Boca Medical Center Heliport

Update a link
 
Copyright © AirNav, LLC. All rights reserved. Privacy Policy  Contact